createdAt,value
2019-02-02T00:01:17.319Z,36.13
2019-02-02T00:03:46.898Z,42.60
2019-02-02T00:06:16.032Z,40.27
2019-02-02T00:08:44.984Z,42.90
2019-02-02T00:11:14.362Z,38.10
2019-02-02T00:13:43.868Z,46.20
2019-02-02T00:16:13.542Z,44.40
2019-02-02T00:18:43.187Z,44.43
2019-02-02T00:21:12.371Z,46.23
2019-02-02T00:23:41.239Z,40.43
2019-02-02T00:26:10.872Z,43.50
2019-02-02T00:28:40.289Z,37.57
2019-02-02T00:31:09.983Z,43.17
2019-02-02T00:33:39.935Z,35.00
2019-02-02T00:36:09.718Z,34.70
2019-02-02T00:38:39.385Z,34.37
2019-02-02T00:41:08.741Z,32.40
2019-02-02T00:43:38.672Z,32.10
2019-02-02T00:46:07.751Z,29.90
2019-02-02T00:48:36.683Z,33.17
2019-02-02T00:51:06.336Z,32.20
2019-02-02T00:53:35.320Z,31.13
2019-02-02T00:56:04.828Z,31.97
2019-02-02T00:58:33.961Z,28.13
2019-02-02T01:01:02.951Z,38.00
2019-02-02T01:03:31.795Z,29.90
2019-02-02T01:06:05.684Z,28.50
2019-02-02T01:08:34.823Z,29.63
2019-02-02T01:11:04.852Z,29.20
2019-02-02T01:13:33.732Z,26.60
2019-02-02T01:16:03.763Z,25.87
2019-02-02T01:18:32.651Z,32.73
2019-02-02T01:21:04.727Z,28.13
2019-02-02T01:23:33.753Z,31.03
2019-02-02T01:26:03.655Z,29.87
2019-02-02T01:28:32.696Z,30.57
2019-02-02T01:31:01.684Z,28.63
2019-02-02T01:33:31.096Z,30.97
2019-02-02T01:36:00.603Z,31.40
2019-02-02T01:38:29.551Z,27.83
2019-02-02T01:40:58.791Z,29.83
2019-02-02T01:43:28.007Z,38.47
2019-02-02T01:45:57.291Z,29.30
2019-02-02T01:48:26.175Z,32.83
2019-02-02T01:50:55.889Z,28.40
2019-02-02T01:53:24.683Z,27.80
2019-02-02T01:55:53.499Z,29.10
2019-02-02T01:58:22.389Z,31.73
2019-02-02T02:00:51.955Z,32.87
2019-02-02T02:03:20.936Z,27.80
2019-02-02T02:05:50.462Z,25.50
2019-02-02T02:08:19.545Z,23.67
2019-02-02T02:10:49.468Z,29.20
2019-02-02T02:13:19.328Z,36.60
2019-02-02T02:15:48.603Z,32.70
2019-02-02T02:18:17.508Z,31.47
2019-02-02T02:20:47.011Z,27.93
2019-02-02T02:23:15.984Z,30.70
2019-02-02T02:25:45.264Z,32.00
2019-02-02T02:28:14.424Z,34.90
2019-02-02T02:30:47.126Z,34.17
2019-02-02T02:33:14.383Z,36.33
2019-02-02T02:35:43.494Z,35.23
2019-02-02T02:38:12.822Z,31.30
2019-02-02T02:40:42.109Z,32.13
2019-02-02T02:43:11.289Z,34.70
2019-02-02T02:45:40.518Z,37.47
2019-02-02T02:48:10.283Z,27.97
2019-02-02T02:50:40.008Z,30.20
2019-02-02T02:53:08.958Z,32.43
2019-02-02T02:55:37.896Z,32.70
2019-02-02T02:58:07.398Z,39.27
2019-02-02T03:00:36.400Z,34.20
2019-02-02T03:03:06.100Z,33.33
2019-02-02T03:05:35.407Z,35.77
2019-02-02T03:08:04.461Z,34.80
2019-02-02T03:10:33.556Z,40.00
2019-02-02T03:13:05.579Z,34.87
2019-02-02T03:15:35.311Z,34.77
2019-02-02T03:18:05.019Z,34.13
2019-02-02T03:20:34.079Z,31.27
2019-02-02T03:23:04.681Z,34.93
2019-02-02T03:25:34.235Z,35.23
2019-02-02T03:28:03.642Z,40.63
2019-02-02T03:30:32.933Z,37.87
2019-02-02T03:33:02.660Z,37.33
2019-02-02T03:35:31.679Z,44.80
2019-02-02T03:38:00.905Z,41.93
2019-02-02T03:40:30.209Z,39.73
2019-02-02T03:42:59.326Z,35.60
2019-02-02T03:45:28.547Z,37.50
2019-02-02T03:47:57.496Z,34.13
2019-02-02T03:50:26.699Z,39.00
2019-02-02T03:52:56.313Z,31.90
2019-02-02T03:55:25.506Z,40.13
2019-02-02T03:57:55.104Z,33.30
2019-02-02T04:00:24.707Z,27.37
2019-02-02T04:02:53.680Z,30.77
2019-02-02T04:05:25.695Z,33.00
2019-02-02T04:07:54.866Z,30.83
2019-02-02T04:10:24.377Z,34.00
2019-02-02T04:12:53.303Z,31.00
2019-02-02T04:15:22.829Z,40.53
2019-02-02T04:17:51.785Z,38.40
2019-02-02T04:20:22.052Z,34.50
2019-02-02T04:22:51.829Z,33.37
2019-02-02T04:25:22.005Z,38.20
2019-02-02T04:27:52.079Z,40.63
2019-02-02T04:30:23.195Z,35.13
2019-02-02T04:32:52.527Z,35.53
2019-02-02T04:35:21.775Z,41.10
2019-02-02T04:37:50.828Z,38.10
2019-02-02T04:40:20.482Z,37.10
2019-02-02T04:42:50.348Z,33.47
2019-02-02T04:45:20.002Z,40.67
2019-02-02T04:47:49.197Z,40.10
2019-02-02T04:50:18.624Z,43.33
2019-02-02T04:52:47.969Z,33.63
2019-02-02T04:55:18.323Z,39.33
2019-02-02T04:57:48.142Z,36.43
2019-02-02T05:00:20.836Z,37.20
2019-02-02T05:02:50.429Z,45.30
2019-02-02T05:05:19.519Z,36.60
2019-02-02T05:07:49.363Z,40.30
2019-02-02T05:10:19.892Z,30.17
2019-02-02T05:12:49.763Z,37.27
2019-02-02T05:15:19.071Z,33.70
2019-02-02T05:17:47.982Z,43.33
2019-02-02T05:20:17.190Z,38.70
2019-02-02T05:22:46.767Z,40.93
2019-02-02T05:25:16.530Z,40.93
2019-02-02T05:27:45.463Z,44.77
2019-02-02T05:30:20.236Z,38.53
2019-02-02T05:32:49.808Z,35.67
2019-02-02T05:35:19.555Z,31.93
2019-02-02T05:37:48.821Z,38.77
2019-02-02T05:40:18.924Z,36.73
2019-02-02T05:42:48.135Z,34.77
2019-02-02T05:45:19.020Z,35.80
2019-02-02T05:47:48.377Z,35.87
2019-02-02T05:50:19.471Z,31.97
2019-02-02T05:52:48.603Z,38.83
2019-02-02T05:55:18.423Z,39.80
2019-02-02T05:57:47.622Z,40.20
2019-02-02T06:01:05.800Z,39.53
2019-02-02T06:03:34.965Z,34.60
2019-02-02T06:06:04.852Z,42.47
2019-02-02T06:08:34.507Z,35.80
2019-02-02T06:11:03.548Z,48.27
2019-02-02T06:13:32.839Z,37.20
2019-02-02T06:16:01.727Z,39.80
2019-02-02T06:18:30.604Z,41.00
2019-02-02T06:20:59.795Z,51.40
2019-02-02T06:23:29.263Z,37.80
2019-02-02T06:25:58.401Z,38.40
2019-02-02T06:28:27.919Z,39.53
2019-02-02T06:31:00.049Z,41.67
2019-02-02T06:33:28.211Z,45.27
2019-02-02T06:35:58.023Z,46.77
2019-02-02T06:38:26.997Z,46.73
2019-02-02T06:40:56.655Z,54.03
2019-02-02T06:43:25.476Z,47.63
2019-02-02T06:45:54.299Z,49.33
2019-02-02T06:48:24.096Z,51.43
2019-02-02T06:50:53.249Z,47.37
2019-02-02T06:53:22.920Z,55.90
2019-02-02T06:55:52.195Z,54.97
2019-02-02T06:58:21.816Z,48.77
2019-02-02T07:00:51.123Z,40.40
2019-02-02T07:03:20.091Z,41.57
2019-02-02T07:05:49.272Z,34.93
2019-02-02T07:08:18.845Z,47.40
2019-02-02T07:10:48.255Z,37.27
2019-02-02T07:13:17.548Z,46.17
2019-02-02T07:15:46.760Z,48.93
2019-02-02T07:18:15.844Z,45.60
2019-02-02T07:20:45.207Z,44.97
2019-02-02T07:23:14.304Z,47.47
2019-02-02T07:25:43.098Z,44.63
2019-02-02T07:28:11.975Z,47.07
2019-02-02T07:30:40.843Z,49.30
2019-02-02T07:33:09.711Z,49.10
2019-02-02T07:35:38.857Z,45.93
2019-02-02T07:38:08.446Z,52.77
2019-02-02T07:40:38.251Z,53.70
2019-02-02T07:43:07.480Z,45.47
2019-02-02T07:45:36.653Z,54.13
2019-02-02T07:48:06.036Z,46.13
2019-02-02T07:50:35.276Z,47.93
2019-02-02T07:53:07.389Z,49.10
2019-02-02T07:55:37.270Z,47.17
2019-02-02T07:58:08.428Z,44.90
2019-02-02T09:13:52.984Z,56.80
2019-02-02T09:16:22.547Z,49.67
2019-02-02T09:18:52.073Z,64.00
2019-02-02T09:21:21.379Z,56.30
2019-02-02T09:23:50.215Z,68.20
2019-02-02T09:26:19.440Z,58.77
2019-02-02T09:28:48.547Z,50.83
2019-02-02T09:31:17.580Z,60.87
2019-02-02T09:33:46.689Z,66.93
2019-02-02T09:36:16.919Z,70.77
2019-02-02T09:38:46.804Z,56.40
2019-02-02T09:41:15.672Z,70.03
2019-02-02T09:43:44.492Z,60.73
2019-02-02T09:46:13.662Z,85.87
2019-02-02T09:48:43.207Z,56.40
2019-02-02T09:51:13.056Z,67.13
2019-02-02T09:53:41.827Z,47.23
2019-02-02T09:56:10.660Z,51.87
2019-02-02T09:58:39.776Z,52.17
2019-02-02T10:01:08.639Z,50.47
2019-02-02T10:03:37.920Z,56.40
2019-02-02T10:06:07.535Z,54.23
2019-02-02T10:08:36.720Z,56.17
2019-02-02T10:11:06.031Z,51.20
2019-02-02T10:13:35.590Z,61.50
2019-02-02T10:16:05.536Z,63.80
2019-02-02T10:18:34.447Z,56.27
2019-02-02T10:21:04.436Z,56.73
2019-02-02T10:23:34.172Z,63.87
2019-02-02T10:26:05.144Z,49.97
2019-02-02T10:28:34.299Z,69.37
2019-02-02T10:31:03.535Z,95.03
2019-02-02T10:33:32.691Z,90.73
2019-02-02T10:36:01.792Z,73.03
2019-02-02T10:38:30.683Z,69.43
2019-02-02T10:40:59.495Z,87.07
2019-02-02T10:43:28.475Z,200.83
2019-02-02T10:45:57.355Z,148.80
2019-02-02T10:48:26.221Z,390.07
2019-02-02T10:50:55.175Z,91.30
2019-02-02T10:53:24.203Z,59.07
2019-02-02T10:55:53.543Z,144.47
2019-02-02T10:58:22.727Z,242.20
2019-02-02T11:00:52.288Z,106.70
2019-02-02T11:03:22.104Z,40.43
2019-02-02T11:05:51.257Z,68.43
2019-02-02T11:08:20.657Z,25.23
2019-02-02T11:10:50.054Z,28.50
2019-02-02T11:13:19.738Z,115.23
2019-02-02T11:15:49.483Z,28.53
2019-02-02T11:18:18.924Z,31.70
2019-02-02T11:20:48.864Z,29.70
2019-02-02T11:23:18.504Z,56.17
2019-02-02T11:25:48.219Z,58.43
2019-02-02T11:28:17.038Z,34.50
2019-02-02T11:30:46.014Z,33.17
2019-02-02T11:33:15.352Z,33.90
2019-02-02T11:35:44.547Z,32.33
2019-02-02T11:38:14.188Z,29.23
2019-02-02T11:40:43.491Z,29.23
2019-02-02T11:43:13.231Z,63.07
2019-02-02T11:45:42.915Z,31.00
2019-02-02T11:48:14.902Z,31.93
2019-02-02T11:50:43.148Z,35.17
2019-02-02T11:53:12.016Z,25.33
2019-02-02T11:55:41.166Z,28.20
2019-02-02T11:58:09.992Z,23.83
2019-02-02T12:00:41.143Z,56.33
2019-02-02T12:03:10.778Z,49.60
2019-02-02T12:05:40.077Z,53.43
2019-02-02T12:08:09.651Z,33.00
2019-02-02T12:10:38.896Z,35.27
2019-02-02T12:13:08.359Z,34.00
2019-02-02T12:15:37.603Z,25.77
2019-02-02T12:18:07.637Z,28.83
2019-02-02T12:20:36.660Z,29.27
2019-02-02T12:23:05.782Z,27.00
2019-02-02T12:25:35.403Z,32.37
2019-02-02T12:28:05.440Z,26.50
2019-02-02T12:30:35.811Z,32.90
2019-02-02T12:33:05.836Z,26.43
2019-02-02T12:35:35.107Z,23.57
2019-02-02T12:38:04.268Z,20.90
2019-02-02T12:40:34.161Z,21.60
2019-02-02T12:43:04.944Z,25.83
2019-02-02T12:45:48.851Z,20.10
2019-02-02T12:48:18.148Z,21.20
2019-02-02T12:50:47.656Z,22.83
2019-02-02T12:53:17.463Z,24.67
2019-02-02T12:55:46.461Z,19.00
2019-02-02T12:58:15.655Z,18.57
2019-02-02T13:00:44.546Z,18.67
2019-02-02T13:03:13.602Z,21.40
2019-02-02T13:05:43.079Z,25.13
2019-02-02T13:08:12.240Z,22.67
2019-02-02T13:10:41.744Z,31.40
2019-02-02T13:13:11.283Z,27.37
2019-02-02T13:15:40.570Z,22.47
2019-02-02T13:18:09.572Z,22.93
2019-02-02T13:20:39.057Z,20.83
2019-02-02T13:23:08.223Z,22.87
2019-02-02T13:25:37.212Z,22.93
2019-02-02T13:28:06.395Z,17.77
2019-02-02T13:30:36.745Z,21.83
2019-02-02T13:33:07.447Z,21.40
2019-02-02T13:35:40.144Z,18.80
2019-02-02T13:38:09.107Z,19.90
2019-02-02T13:40:38.755Z,21.10
2019-02-02T13:43:07.948Z,22.70
2019-02-02T13:45:37.580Z,23.87
2019-02-02T13:48:07.308Z,22.70
2019-02-02T13:50:36.725Z,27.00
2019-02-02T13:53:08.443Z,21.90
2019-02-02T13:55:39.818Z,23.60
2019-02-02T13:58:08.721Z,22.17
2019-02-02T14:00:38.342Z,21.60
2019-02-02T14:03:08.024Z,26.23
2019-02-02T14:05:37.554Z,23.33
2019-02-02T14:08:06.629Z,22.50
2019-02-02T14:10:35.857Z,21.37
2019-02-02T14:13:05.148Z,19.90
2019-02-02T14:15:34.608Z,21.23
2019-02-02T14:18:04.973Z,19.47
2019-02-02T14:20:34.357Z,23.27
2019-02-02T14:23:03.427Z,17.90
2019-02-02T14:25:32.500Z,9.67
2019-02-02T14:28:01.720Z,7.37
2019-02-02T14:30:31.267Z,9.97
2019-02-02T14:33:00.841Z,8.90
2019-02-02T14:35:30.057Z,10.83
2019-02-02T14:37:59.153Z,9.10
2019-02-02T14:40:28.221Z,11.27
2019-02-02T14:42:57.476Z,8.60
2019-02-02T14:45:27.598Z,10.07
2019-02-02T14:47:57.298Z,9.40
2019-02-02T14:50:26.765Z,13.77
2019-02-02T14:52:55.758Z,8.77
2019-02-02T14:55:27.143Z,8.90
2019-02-02T14:57:56.427Z,11.33
2019-02-02T15:00:27.523Z,9.20
2019-02-02T15:02:57.265Z,10.13
2019-02-02T15:05:26.783Z,10.20
2019-02-02T15:07:56.551Z,13.60
2019-02-02T15:10:26.140Z,9.10
2019-02-02T15:12:55.373Z,13.03
2019-02-02T15:15:24.393Z,11.97
2019-02-02T15:17:53.901Z,10.97
2019-02-02T15:20:36.813Z,11.60
2019-02-02T15:23:07.115Z,11.80
2019-02-02T15:25:36.731Z,10.13
2019-02-02T15:28:06.070Z,10.00
2019-02-02T15:30:35.778Z,13.70
2019-02-02T15:33:05.756Z,14.03
2019-02-02T15:35:34.655Z,14.33
2019-02-02T15:38:03.935Z,14.27
2019-02-02T15:40:33.027Z,12.47
2019-02-02T15:43:02.160Z,12.00
2019-02-02T15:45:31.620Z,16.20
2019-02-02T15:48:04.760Z,12.53
2019-02-02T15:50:34.544Z,15.57
2019-02-02T15:53:04.419Z,13.53
2019-02-02T15:55:33.316Z,13.53
2019-02-02T15:58:02.675Z,16.87
2019-02-02T16:00:34.469Z,14.23
2019-02-02T16:03:05.752Z,13.90
2019-02-02T16:05:36.397Z,14.37
2019-02-02T16:08:11.099Z,13.50
2019-02-02T16:10:40.116Z,12.17
2019-02-02T16:13:09.303Z,14.93
2019-02-02T16:15:38.566Z,11.33
2019-02-02T16:18:07.823Z,18.60
2019-02-02T16:20:41.905Z,16.23
2019-02-02T16:23:09.814Z,15.60
2019-02-02T16:25:39.018Z,18.50
2019-02-02T16:28:08.376Z,19.10
2019-02-02T16:30:37.673Z,17.47
2019-02-02T16:33:07.280Z,17.10
2019-02-02T16:35:36.527Z,21.03
2019-02-02T16:38:06.223Z,19.47
2019-02-02T16:40:35.200Z,17.13
2019-02-02T16:43:04.609Z,21.07
2019-02-02T16:45:33.887Z,18.43
2019-02-02T16:48:04.647Z,23.30
2019-02-02T16:50:33.891Z,19.40
2019-02-02T16:53:02.828Z,22.90
2019-02-02T16:55:32.414Z,25.00
2019-02-02T16:58:03.735Z,22.57
2019-02-02T17:00:33.377Z,24.50
2019-02-02T17:03:02.585Z,17.53
2019-02-02T17:05:32.175Z,20.50
2019-02-02T17:08:01.841Z,17.40
2019-02-02T17:10:35.446Z,24.00
2019-02-02T17:13:05.183Z,21.00
2019-02-02T17:15:34.846Z,21.80
2019-02-02T17:18:04.027Z,22.83
2019-02-02T17:20:42.311Z,18.93
2019-02-02T17:23:11.682Z,19.03
2019-02-02T17:25:41.149Z,21.83
2019-02-02T17:28:10.725Z,24.60
2019-02-02T17:30:40.124Z,28.33
2019-02-02T17:33:11.536Z,25.73
2019-02-02T17:35:41.047Z,25.93
2019-02-02T17:38:10.691Z,28.70
2019-02-02T17:40:40.568Z,29.67
2019-02-02T17:43:09.581Z,24.00
2019-02-02T17:45:38.459Z,25.23
2019-02-02T17:48:08.354Z,23.13
2019-02-02T17:50:37.765Z,26.57
2019-02-02T17:53:07.203Z,27.73
2019-02-02T17:55:36.435Z,25.30
2019-02-02T17:58:05.935Z,28.10
2019-02-02T18:00:42.185Z,22.00
2019-02-02T18:03:11.135Z,23.43
2019-02-02T18:05:40.669Z,59.30
2019-02-02T18:08:10.106Z,23.73
2019-02-02T18:10:39.423Z,28.63
2019-02-02T18:13:08.332Z,22.33
2019-02-02T18:15:37.320Z,26.50
2019-02-02T18:18:07.309Z,27.13
2019-02-02T18:20:36.622Z,30.73
2019-02-02T18:23:06.035Z,23.77
2019-02-02T18:25:35.255Z,32.13
2019-02-02T18:28:07.833Z,29.47
2019-02-02T18:30:37.423Z,26.50
2019-02-02T18:33:06.756Z,33.00
2019-02-02T18:35:35.824Z,29.30
2019-02-02T18:38:05.152Z,33.53
2019-02-02T18:40:34.467Z,35.30
2019-02-02T18:43:04.603Z,37.50
2019-02-02T18:45:33.471Z,38.10
2019-02-02T18:48:03.300Z,34.10
2019-02-02T18:50:32.299Z,39.47
2019-02-02T18:53:01.992Z,40.37
2019-02-02T18:55:46.986Z,39.00
2019-02-02T18:58:16.197Z,43.87
2019-02-02T19:00:46.119Z,43.87
2019-02-02T19:03:15.391Z,43.67
2019-02-02T19:05:45.099Z,48.47
2019-02-02T19:08:14.035Z,47.60
2019-02-02T19:10:43.296Z,52.40
2019-02-02T19:13:12.316Z,55.47
2019-02-02T19:15:41.687Z,50.17
2019-02-02T19:18:11.157Z,51.97
2019-02-02T19:20:40.856Z,45.37
2019-02-02T19:23:10.492Z,50.43
2019-02-02T19:25:39.776Z,60.60
2019-02-02T19:28:08.983Z,47.23
2019-02-02T19:30:38.583Z,65.60
2019-02-02T19:33:08.187Z,76.80
2019-02-02T19:35:37.427Z,59.90
2019-02-02T19:38:06.493Z,74.20
2019-02-02T19:40:35.827Z,68.73
2019-02-02T19:43:05.319Z,69.10
2019-02-02T19:45:34.488Z,67.10
2019-02-02T19:48:06.344Z,68.20
2019-02-02T19:50:36.516Z,62.43
2019-02-02T19:53:05.802Z,61.80
2019-02-02T19:55:34.752Z,52.87
2019-02-02T19:58:03.587Z,64.33
2019-02-02T20:00:33.007Z,56.97
2019-02-02T20:03:05.174Z,65.03
2019-02-02T20:05:34.819Z,71.13
2019-02-02T20:08:05.240Z,60.23
2019-02-02T20:10:34.855Z,66.90
2019-02-02T20:13:03.835Z,73.47
2019-02-02T20:15:33.372Z,69.00
2019-02-02T20:18:10.074Z,65.80
2019-02-02T20:20:35.847Z,64.17
2019-02-02T20:23:05.145Z,70.67
2019-02-02T20:25:34.751Z,82.83
2019-02-02T20:28:03.927Z,84.13
2019-02-02T20:30:32.928Z,48.37
2019-02-02T20:33:02.454Z,66.37
2019-02-02T20:35:40.839Z,55.17
2019-02-02T20:38:02.415Z,69.80
2019-02-02T20:40:31.992Z,63.93
2019-02-02T20:43:00.767Z,66.60
2019-02-02T20:45:31.992Z,65.90
2019-02-02T20:48:05.788Z,64.17
2019-02-02T20:50:35.456Z,59.07
2019-02-02T20:53:04.591Z,71.00
2019-02-02T20:55:36.571Z,48.30
2019-02-02T20:58:07.534Z,44.50
2019-02-02T21:00:36.947Z,54.27
2019-02-02T21:03:06.543Z,49.53
2019-02-02T21:05:36.152Z,46.77
2019-02-02T21:08:05.679Z,48.90
2019-02-02T21:10:34.665Z,54.87
2019-02-02T21:13:05.255Z,36.33
2019-02-02T21:15:35.636Z,48.50
2019-02-02T21:18:04.659Z,48.43
2019-02-02T21:20:34.135Z,43.50
2019-02-02T21:23:03.123Z,39.70
2019-02-02T21:25:34.064Z,44.67
2019-02-02T21:28:04.003Z,58.63
2019-02-02T21:30:34.623Z,40.67
2019-02-02T21:33:04.255Z,39.93
2019-02-02T21:35:34.333Z,44.93
2019-02-02T21:38:03.405Z,43.07
2019-02-02T21:40:34.103Z,38.30
2019-02-02T21:43:04.971Z,46.27
2019-02-02T21:45:34.361Z,39.97
2019-02-02T21:48:04.017Z,35.60
2019-02-02T21:50:33.628Z,40.23
2019-02-02T21:53:03.217Z,38.87
2019-02-02T21:55:32.880Z,36.07
2019-02-02T21:58:02.194Z,41.63
2019-02-02T22:00:38.128Z,32.77
2019-02-02T22:03:09.462Z,33.47
2019-02-02T22:05:38.995Z,35.40
2019-02-02T22:08:09.129Z,30.27
2019-02-02T22:10:39.665Z,35.43
2019-02-02T22:13:08.885Z,30.47
2019-02-02T22:15:38.011Z,22.00
2019-02-02T22:18:08.845Z,26.03
2019-02-02T22:20:37.790Z,29.03
2019-02-02T22:23:07.828Z,28.50
2019-02-02T22:25:37.514Z,25.53
2019-02-02T22:28:06.991Z,20.83
2019-02-02T22:30:37.103Z,21.80
2019-02-02T22:33:06.693Z,24.27
2019-02-02T22:35:36.228Z,21.03
2019-02-02T22:38:06.113Z,22.07
2019-02-02T22:40:35.147Z,21.93
2019-02-02T22:43:05.507Z,19.33
2019-02-02T22:45:34.379Z,22.70
2019-02-02T22:48:05.608Z,23.33
2019-02-02T22:50:34.638Z,24.73
2019-02-02T22:53:04.259Z,20.77
2019-02-02T22:55:34.239Z,27.73
2019-02-02T22:58:03.632Z,17.63
2019-02-02T23:01:29.155Z,20.07
2019-02-02T23:04:44.636Z,18.63
2019-02-02T23:07:45.636Z,23.13
2019-02-02T23:10:47.088Z,20.20
2019-02-02T23:13:56.915Z,24.70
2019-02-02T23:16:30.265Z,24.00
2019-02-02T23:19:00.100Z,23.03
2019-02-02T23:21:30.766Z,20.27
2019-02-02T23:24:00.103Z,27.83
2019-02-02T23:26:30.076Z,26.27
2019-02-02T23:28:59.668Z,21.97
2019-02-02T23:31:28.857Z,22.67
2019-02-02T23:33:57.711Z,26.80
2019-02-02T23:36:26.779Z,24.87
2019-02-02T23:38:56.073Z,22.43
2019-02-02T23:41:25.748Z,20.27
2019-02-02T23:43:55.562Z,26.07
2019-02-02T23:46:26.284Z,18.93
2019-02-02T23:48:55.199Z,22.53
2019-02-02T23:51:24.779Z,21.70
2019-02-02T23:53:54.294Z,23.67
2019-02-02T23:56:23.592Z,23.40
2019-02-02T23:58:52.587Z,25.50
